sensor_id;sensor_type;location;lat;lon;timestamp;P1;durP1;ratioP1;P2;durP2;ratioP2
8944;SDS011;4507;40.232;29.132;2023-04-15T00:01:17;64.57;;;50.03;;
8944;SDS011;4507;40.232;29.132;2023-04-15T00:03:46;88.63;;;65.47;;
8944;SDS011;4507;40.232;29.132;2023-04-15T00:06:19;52.43;;;44.17;;
8944;SDS011;4507;40.232;29.132;2023-04-15T00:08:49;49.90;;;41.40;;
8944;SDS011;4507;40.232;29.132;2023-04-15T00:11:18;69.10;;;47.30;;
8944;SDS011;4507;40.232;29.132;2023-04-15T00:13:47;52.57;;;40.13;;
8944;SDS011;4507;40.232;29.132;2023-04-15T00:16:17;54.30;;;38.93;;
8944;SDS011;4507;40.232;29.132;2023-04-15T00:18:46;47.90;;;35.53;;
8944;SDS011;4507;40.232;29.132;2023-04-15T00:21:32;43.03;;;35.10;;
8944;SDS011;4507;40.232;29.132;2023-04-15T00:24:01;38.07;;;29.83;;
8944;SDS011;4507;40.232;29.132;2023-04-15T00:26:30;58.70;;;46.43;;
8944;SDS011;4507;40.232;29.132;2023-04-15T00:28:59;72.37;;;55.30;;
8944;SDS011;4507;40.232;29.132;2023-04-15T00:31:28;126.63;;;75.87;;
8944;SDS011;4507;40.232;29.132;2023-04-15T00:33:59;92.50;;;67.37;;
8944;SDS011;4507;40.232;29.132;2023-04-15T00:36:28;82.87;;;65.73;;
8944;SDS011;4507;40.232;29.132;2023-04-15T00:38:58;68.87;;;53.13;;
8944;SDS011;4507;40.232;29.132;2023-04-15T00:41:28;58.07;;;43.00;;
8944;SDS011;4507;40.232;29.132;2023-04-15T00:43:57;55.00;;;39.10;;
8944;SDS011;4507;40.232;29.132;2023-04-15T00:46:28;64.37;;;37.40;;
8944;SDS011;4507;40.232;29.132;2023-04-15T00:48:58;61.93;;;39.13;;
8944;SDS011;4507;40.232;29.132;2023-04-15T00:51:28;60.43;;;43.60;;
8944;SDS011;4507;40.232;29.132;2023-04-15T00:54:01;66.33;;;47.50;;
8944;SDS011;4507;40.232;29.132;2023-04-15T00:56:30;83.40;;;54.97;;
8944;SDS011;4507;40.232;29.132;2023-04-15T00:59:04;82.53;;;56.33;;
8944;SDS011;4507;40.232;29.132;2023-04-15T01:01:34;86.70;;;61.80;;
8944;SDS011;4507;40.232;29.132;2023-04-15T01:04:04;75.40;;;56.17;;
8944;SDS011;4507;40.232;29.132;2023-04-15T01:06:36;84.53;;;57.43;;
8944;SDS011;4507;40.232;29.132;2023-04-15T01:09:06;75.63;;;53.50;;
8944;SDS011;4507;40.232;29.132;2023-04-15T01:11:37;80.80;;;56.73;;
8944;SDS011;4507;40.232;29.132;2023-04-15T01:14:07;85.87;;;54.60;;
8944;SDS011;4507;40.232;29.132;2023-04-15T01:16:37;79.20;;;53.23;;
8944;SDS011;4507;40.232;29.132;2023-04-15T01:19:07;77.47;;;53.77;;
8944;SDS011;4507;40.232;29.132;2023-04-15T01:21:56;79.83;;;53.17;;
8944;SDS011;4507;40.232;29.132;2023-04-15T01:24:27;87.40;;;64.80;;
8944;SDS011;4507;40.232;29.132;2023-04-15T01:27:00;91.30;;;70.37;;
8944;SDS011;4507;40.232;29.132;2023-04-15T01:29:30;90.20;;;70.30;;
8944;SDS011;4507;40.232;29.132;2023-04-15T01:32:00;96.70;;;72.30;;
8944;SDS011;4507;40.232;29.132;2023-04-15T01:34:29;92.57;;;71.37;;
8944;SDS011;4507;40.232;29.132;2023-04-15T01:37:01;135.17;;;73.30;;
8944;SDS011;4507;40.232;29.132;2023-04-15T01:39:30;120.37;;;73.70;;
8944;SDS011;4507;40.232;29.132;2023-04-15T01:42:00;123.10;;;70.80;;
8944;SDS011;4507;40.232;29.132;2023-04-15T01:44:30;119.07;;;70.50;;
8944;SDS011;4507;40.232;29.132;2023-04-15T01:46:59;87.93;;;62.27;;
8944;SDS011;4507;40.232;29.132;2023-04-15T01:49:28;74.40;;;54.73;;
8944;SDS011;4507;40.232;29.132;2023-04-15T01:52:15;72.90;;;50.47;;
8944;SDS011;4507;40.232;29.132;2023-04-15T01:54:44;79.17;;;51.27;;
8944;SDS011;4507;40.232;29.132;2023-04-15T01:57:15;58.13;;;44.43;;
8944;SDS011;4507;40.232;29.132;2023-04-15T01:59:44;57.67;;;40.33;;
8944;SDS011;4507;40.232;29.132;2023-04-15T02:02:13;45.50;;;31.10;;
8944;SDS011;4507;40.232;29.132;2023-04-15T02:04:43;39.07;;;30.53;;
8944;SDS011;4507;40.232;29.132;2023-04-15T02:07:12;44.23;;;31.27;;
8944;SDS011;4507;40.232;29.132;2023-04-15T02:09:41;48.83;;;36.73;;
8944;SDS011;4507;40.232;29.132;2023-04-15T02:12:12;63.27;;;37.37;;
8944;SDS011;4507;40.232;29.132;2023-04-15T02:14:42;82.90;;;48.10;;
8944;SDS011;4507;40.232;29.132;2023-04-15T02:17:11;44.00;;;27.93;;
8944;SDS011;4507;40.232;29.132;2023-04-15T02:19:59;44.80;;;23.70;;
8944;SDS011;4507;40.232;29.132;2023-04-15T02:22:30;54.93;;;23.47;;
8944;SDS011;4507;40.232;29.132;2023-04-15T02:25:18;30.07;;;23.07;;
8944;SDS011;4507;40.232;29.132;2023-04-15T02:27:47;31.20;;;21.97;;
8944;SDS011;4507;40.232;29.132;2023-04-15T02:30:18;34.47;;;23.07;;
8944;SDS011;4507;40.232;29.132;2023-04-15T02:32:49;32.23;;;22.63;;
8944;SDS011;4507;40.232;29.132;2023-04-15T02:35:18;61.07;;;23.07;;
8944;SDS011;4507;40.232;29.132;2023-04-15T02:37:47;48.53;;;20.23;;
8944;SDS011;4507;40.232;29.132;2023-04-15T02:40:17;30.27;;;17.83;;
8944;SDS011;4507;40.232;29.132;2023-04-15T02:42:46;41.07;;;17.87;;
8944;SDS011;4507;40.232;29.132;2023-04-15T02:45:18;39.07;;;18.17;;
8944;SDS011;4507;40.232;29.132;2023-04-15T02:48:08;31.53;;;16.73;;
8944;SDS011;4507;40.232;29.132;2023-04-15T02:50:37;35.30;;;16.73;;
8944;SDS011;4507;40.232;29.132;2023-04-15T02:53:08;35.27;;;15.67;;
8944;SDS011;4507;40.232;29.132;2023-04-15T02:55:39;27.83;;;15.60;;
8944;SDS011;4507;40.232;29.132;2023-04-15T02:58:08;28.77;;;17.57;;
8944;SDS011;4507;40.232;29.132;2023-04-15T03:00:39;32.23;;;16.30;;
8944;SDS011;4507;40.232;29.132;2023-04-15T03:03:08;35.77;;;17.50;;
8944;SDS011;4507;40.232;29.132;2023-04-15T03:05:37;42.50;;;18.70;;
8944;SDS011;4507;40.232;29.132;2023-04-15T03:08:07;26.03;;;17.20;;
8944;SDS011;4507;40.232;29.132;2023-04-15T03:10:35;35.93;;;20.23;;
8944;SDS011;4507;40.232;29.132;2023-04-15T03:13:05;27.90;;;20.07;;
8944;SDS011;4507;40.232;29.132;2023-04-15T03:15:35;52.37;;;24.60;;
8944;SDS011;4507;40.232;29.132;2023-04-15T03:18:05;89.13;;;34.07;;
8944;SDS011;4507;40.232;29.132;2023-04-15T03:20:34;97.83;;;46.20;;
8944;SDS011;4507;40.232;29.132;2023-04-15T03:23:24;116.40;;;57.07;;
8944;SDS011;4507;40.232;29.132;2023-04-15T03:25:55;78.20;;;46.50;;
8944;SDS011;4507;40.232;29.132;2023-04-15T03:28:27;42.00;;;25.67;;
8944;SDS011;4507;40.232;29.132;2023-04-15T03:30:57;26.77;;;19.93;;
8944;SDS011;4507;40.232;29.132;2023-04-15T03:33:28;27.67;;;17.43;;
8944;SDS011;4507;40.232;29.132;2023-04-15T03:35:57;28.63;;;17.37;;
8944;SDS011;4507;40.232;29.132;2023-04-15T03:38:26;37.73;;;19.27;;
8944;SDS011;4507;40.232;29.132;2023-04-15T03:40:56;52.20;;;20.50;;
8944;SDS011;4507;40.232;29.132;2023-04-15T03:43:25;49.97;;;18.27;;
8944;SDS011;4507;40.232;29.132;2023-04-15T03:45:54;40.57;;;17.03;;
8944;SDS011;4507;40.232;29.132;2023-04-15T03:48:25;44.83;;;17.67;;
8944;SDS011;4507;40.232;29.132;2023-04-15T03:50:55;78.70;;;19.17;;
8944;SDS011;4507;40.232;29.132;2023-04-15T03:53:25;55.67;;;17.03;;
8944;SDS011;4507;40.232;29.132;2023-04-15T03:55:54;44.00;;;16.83;;
8944;SDS011;4507;40.232;29.132;2023-04-15T03:58:23;31.23;;;14.37;;
8944;SDS011;4507;40.232;29.132;2023-04-15T04:00:52;27.60;;;13.73;;
8944;SDS011;4507;40.232;29.132;2023-04-15T04:03:22;18.97;;;13.77;;
8944;SDS011;4507;40.232;29.132;2023-04-15T04:05:52;23.63;;;14.53;;
8944;SDS011;4507;40.232;29.132;2023-04-15T04:08:23;19.43;;;13.87;;
8944;SDS011;4507;40.232;29.132;2023-04-15T04:10:53;27.23;;;12.53;;
8944;SDS011;4507;40.232;29.132;2023-04-15T04:13:22;18.30;;;12.57;;
8944;SDS011;4507;40.232;29.132;2023-04-15T04:15:52;90.03;;;18.07;;
8944;SDS011;4507;40.232;29.132;2023-04-15T04:18:21;42.77;;;13.77;;
8944;SDS011;4507;40.232;29.132;2023-04-15T04:20:50;71.67;;;16.80;;
8944;SDS011;4507;40.232;29.132;2023-04-15T04:23:29;54.40;;;15.87;;
8944;SDS011;4507;40.232;29.132;2023-04-15T04:25:58;44.23;;;13.33;;
8944;SDS011;4507;40.232;29.132;2023-04-15T04:28:27;58.03;;;13.10;;
8944;SDS011;4507;40.232;29.132;2023-04-15T04:30:56;40.07;;;12.60;;
8944;SDS011;4507;40.232;29.132;2023-04-15T04:33:25;27.47;;;9.23;;
8944;SDS011;4507;40.232;29.132;2023-04-15T04:35:54;30.27;;;10.07;;
8944;SDS011;4507;40.232;29.132;2023-04-15T04:38:23;103.40;;;16.73;;
8944;SDS011;4507;40.232;29.132;2023-04-15T04:40:54;68.43;;;12.30;;
8944;SDS011;4507;40.232;29.132;2023-04-15T04:43:23;40.73;;;11.73;;
8944;SDS011;4507;40.232;29.132;2023-04-15T04:45:53;42.77;;;12.43;;
8944;SDS011;4507;40.232;29.132;2023-04-15T04:48:23;33.57;;;10.73;;
8944;SDS011;4507;40.232;29.132;2023-04-15T04:51:13;34.10;;;11.27;;
8944;SDS011;4507;40.232;29.132;2023-04-15T04:53:42;41.37;;;11.40;;
8944;SDS011;4507;40.232;29.132;2023-04-15T04:56:13;46.30;;;11.40;;
8944;SDS011;4507;40.232;29.132;2023-04-15T04:58:42;71.20;;;13.30;;
8944;SDS011;4507;40.232;29.132;2023-04-15T05:01:11;32.13;;;11.87;;
8944;SDS011;4507;40.232;29.132;2023-04-15T05:03:40;25.40;;;12.70;;
8944;SDS011;4507;40.232;29.132;2023-04-15T05:06:10;35.17;;;19.03;;
8944;SDS011;4507;40.232;29.132;2023-04-15T05:08:39;33.60;;;15.30;;
8944;SDS011;4507;40.232;29.132;2023-04-15T05:11:08;52.33;;;24.77;;
8944;SDS011;4507;40.232;29.132;2023-04-15T05:13:38;48.07;;;26.73;;
8944;SDS011;4507;40.232;29.132;2023-04-15T05:16:08;47.90;;;20.50;;
8944;SDS011;4507;40.232;29.132;2023-04-15T05:18:37;57.23;;;23.37;;
8944;SDS011;4507;40.232;29.132;2023-04-15T05:21:06;92.67;;;39.33;;
8944;SDS011;4507;40.232;29.132;2023-04-15T05:23:54;73.00;;;36.63;;
8944;SDS011;4507;40.232;29.132;2023-04-15T05:26:23;87.17;;;30.60;;
8944;SDS011;4507;40.232;29.132;2023-04-15T05:28:54;130.20;;;47.30;;
8944;SDS011;4507;40.232;29.132;2023-04-15T05:31:23;130.70;;;55.70;;
8944;SDS011;4507;40.232;29.132;2023-04-15T05:33:53;156.73;;;90.97;;
8944;SDS011;4507;40.232;29.132;2023-04-15T05:36:22;52.53;;;32.67;;
8944;SDS011;4507;40.232;29.132;2023-04-15T05:38:51;44.77;;;20.43;;
8944;SDS011;4507;40.232;29.132;2023-04-15T05:41:20;86.43;;;29.03;;
8944;SDS011;4507;40.232;29.132;2023-04-15T05:43:49;61.47;;;20.97;;
8944;SDS011;4507;40.232;29.132;2023-04-15T05:46:20;64.73;;;20.93;;
8944;SDS011;4507;40.232;29.132;2023-04-15T05:49:08;56.63;;;19.53;;
8944;SDS011;4507;40.232;29.132;2023-04-15T05:51:37;50.20;;;19.13;;
8944;SDS011;4507;40.232;29.132;2023-04-15T05:54:07;100.60;;;21.73;;
8944;SDS011;4507;40.232;29.132;2023-04-15T05:56:36;48.70;;;19.17;;
8944;SDS011;4507;40.232;29.132;2023-04-15T05:59:05;54.40;;;13.47;;
8944;SDS011;4507;40.232;29.132;2023-04-15T06:01:35;46.93;;;12.63;;
8944;SDS011;4507;40.232;29.132;2023-04-15T06:04:07;26.37;;;10.70;;
8944;SDS011;4507;40.232;29.132;2023-04-15T06:06:39;26.40;;;10.37;;
8944;SDS011;4507;40.232;29.132;2023-04-15T06:09:12;39.37;;;12.40;;
8944;SDS011;4507;40.232;29.132;2023-04-15T06:11:41;37.80;;;10.90;;
8944;SDS011;4507;40.232;29.132;2023-04-15T06:14:10;33.87;;;10.77;;
8944;SDS011;4507;40.232;29.132;2023-04-15T06:16:41;27.13;;;10.63;;
8944;SDS011;4507;40.232;29.132;2023-04-15T06:19:10;36.03;;;11.30;;
8944;SDS011;4507;40.232;29.132;2023-04-15T06:21:59;51.20;;;13.63;;
8944;SDS011;4507;40.232;29.132;2023-04-15T06:24:28;27.23;;;11.33;;
8944;SDS011;4507;40.232;29.132;2023-04-15T06:26:59;28.57;;;11.50;;
8944;SDS011;4507;40.232;29.132;2023-04-15T06:29:28;31.53;;;10.90;;
8944;SDS011;4507;40.232;29.132;2023-04-15T06:32:06;20.80;;;11.27;;
8944;SDS011;4507;40.232;29.132;2023-04-15T06:35:12;18.40;;;11.57;;
8944;SDS011;4507;40.232;29.132;2023-04-15T06:37:50;43.43;;;13.47;;
8944;SDS011;4507;40.232;29.132;2023-04-15T06:40:19;52.37;;;17.20;;
8944;SDS011;4507;40.232;29.132;2023-04-15T06:42:48;55.37;;;17.27;;
8944;SDS011;4507;40.232;29.132;2023-04-15T06:45:21;58.50;;;16.33;;
8944;SDS011;4507;40.232;29.132;2023-04-15T06:47:51;51.83;;;16.90;;
8944;SDS011;4507;40.232;29.132;2023-04-15T06:50:21;83.00;;;21.73;;
8944;SDS011;4507;40.232;29.132;2023-04-15T06:52:50;86.77;;;22.87;;
8944;SDS011;4507;40.232;29.132;2023-04-15T06:55:19;94.13;;;23.00;;
8944;SDS011;4507;40.232;29.132;2023-04-15T06:57:48;61.20;;;22.57;;
8944;SDS011;4507;40.232;29.132;2023-04-15T07:00:18;68.43;;;21.93;;
8944;SDS011;4507;40.232;29.132;2023-04-15T07:02:47;60.00;;;24.37;;
8944;SDS011;4507;40.232;29.132;2023-04-15T07:05:17;67.80;;;25.10;;
8944;SDS011;4507;40.232;29.132;2023-04-15T07:07:47;86.30;;;29.67;;
8944;SDS011;4507;40.232;29.132;2023-04-15T07:10:16;68.90;;;31.90;;
8944;SDS011;4507;40.232;29.132;2023-04-15T07:12:45;49.50;;;30.03;;
8944;SDS011;4507;40.232;29.132;2023-04-15T07:15:16;59.33;;;31.23;;
8944;SDS011;4507;40.232;29.132;2023-04-15T07:17:45;58.77;;;25.50;;
8944;SDS011;4507;40.232;29.132;2023-04-15T07:20:15;75.30;;;23.87;;
8944;SDS011;4507;40.232;29.132;2023-04-15T07:22:45;49.23;;;22.43;;
8944;SDS011;4507;40.232;29.132;2023-04-15T07:25:14;44.23;;;21.77;;
8944;SDS011;4507;40.232;29.132;2023-04-15T07:27:45;40.93;;;24.53;;
8944;SDS011;4507;40.232;29.132;2023-04-15T07:30:14;32.10;;;23.10;;
8944;SDS011;4507;40.232;29.132;2023-04-15T07:32:43;52.53;;;28.23;;
8944;SDS011;4507;40.232;29.132;2023-04-15T07:35:12;73.13;;;31.87;;
8944;SDS011;4507;40.232;29.132;2023-04-15T07:37:41;88.33;;;37.97;;
8944;SDS011;4507;40.232;29.132;2023-04-15T07:40:12;76.63;;;39.33;;
8944;SDS011;4507;40.232;29.132;2023-04-15T07:42:42;75.90;;;38.77;;
8944;SDS011;4507;40.232;29.132;2023-04-15T07:45:11;47.53;;;29.23;;
8944;SDS011;4507;40.232;29.132;2023-04-15T07:47:40;52.70;;;27.77;;
8944;SDS011;4507;40.232;29.132;2023-04-15T07:50:09;46.97;;;23.70;;
8944;SDS011;4507;40.232;29.132;2023-04-15T07:52:38;72.20;;;22.77;;
8944;SDS011;4507;40.232;29.132;2023-04-15T07:55:08;37.63;;;19.07;;
8944;SDS011;4507;40.232;29.132;2023-04-15T07:57:39;76.17;;;29.60;;
8944;SDS011;4507;40.232;29.132;2023-04-15T08:00:08;74.27;;;31.13;;
8944;SDS011;4507;40.232;29.132;2023-04-15T08:02:39;57.33;;;27.70;;
8944;SDS011;4507;40.232;29.132;2023-04-15T08:05:09;47.57;;;26.30;;
8944;SDS011;4507;40.232;29.132;2023-04-15T08:07:38;66.80;;;26.47;;
8944;SDS011;4507;40.232;29.132;2023-04-15T08:10:07;52.47;;;26.07;;
8944;SDS011;4507;40.232;29.132;2023-04-15T08:12:37;51.30;;;26.03;;
8944;SDS011;4507;40.232;29.132;2023-04-15T08:15:08;82.17;;;31.60;;
8944;SDS011;4507;40.232;29.132;2023-04-15T08:17:38;58.87;;;31.07;;
8944;SDS011;4507;40.232;29.132;2023-04-15T08:20:08;62.13;;;32.37;;
8944;SDS011;4507;40.232;29.132;2023-04-15T08:22:37;60.97;;;33.90;;
8944;SDS011;4507;40.232;29.132;2023-04-15T08:25:07;62.10;;;33.50;;
8944;SDS011;4507;40.232;29.132;2023-04-15T08:27:37;56.53;;;35.83;;
8944;SDS011;4507;40.232;29.132;2023-04-15T08:30:08;91.03;;;39.07;;
8944;SDS011;4507;40.232;29.132;2023-04-15T08:32:37;74.70;;;39.83;;
8944;SDS011;4507;40.232;29.132;2023-04-15T08:35:07;79.90;;;38.37;;
8944;SDS011;4507;40.232;29.132;2023-04-15T08:37:36;126.87;;;42.13;;
8944;SDS011;4507;40.232;29.132;2023-04-15T08:40:06;93.50;;;39.37;;
8944;SDS011;4507;40.232;29.132;2023-04-15T08:42:38;76.57;;;38.70;;
8944;SDS011;4507;40.232;29.132;2023-04-15T08:45:12;56.83;;;32.70;;
8944;SDS011;4507;40.232;29.132;2023-04-15T08:47:42;75.50;;;30.40;;
8944;SDS011;4507;40.232;29.132;2023-04-15T08:50:12;60.17;;;35.17;;
8944;SDS011;4507;40.232;29.132;2023-04-15T08:52:43;62.57;;;30.73;;
8944;SDS011;4507;40.232;29.132;2023-04-15T08:55:12;51.93;;;29.23;;
8944;SDS011;4507;40.232;29.132;2023-04-15T08:57:42;112.10;;;31.10;;
8944;SDS011;4507;40.232;29.132;2023-04-15T09:00:13;51.87;;;27.37;;
8944;SDS011;4507;40.232;29.132;2023-04-15T09:02:43;53.00;;;24.00;;
8944;SDS011;4507;40.232;29.132;2023-04-15T09:05:13;40.03;;;23.03;;
8944;SDS011;4507;40.232;29.132;2023-04-15T09:07:43;35.77;;;22.37;;
8944;SDS011;4507;40.232;29.132;2023-04-15T09:10:12;41.67;;;19.67;;
8944;SDS011;4507;40.232;29.132;2023-04-15T09:12:41;36.63;;;16.90;;
8944;SDS011;4507;40.232;29.132;2023-04-15T09:15:10;38.63;;;17.73;;
8944;SDS011;4507;40.232;29.132;2023-04-15T09:17:42;54.73;;;21.47;;
8944;SDS011;4507;40.232;29.132;2023-04-15T09:20:12;46.20;;;23.87;;
8944;SDS011;4507;40.232;29.132;2023-04-15T09:22:44;55.93;;;23.23;;
8944;SDS011;4507;40.232;29.132;2023-04-15T09:25:24;41.60;;;21.87;;
8944;SDS011;4507;40.232;29.132;2023-04-15T09:27:55;37.00;;;17.97;;
8944;SDS011;4507;40.232;29.132;2023-04-15T09:30:30;40.50;;;15.80;;
8944;SDS011;4507;40.232;29.132;2023-04-15T09:33:00;32.20;;;14.40;;
8944;SDS011;4507;40.232;29.132;2023-04-15T09:35:30;37.20;;;16.03;;
8944;SDS011;4507;40.232;29.132;2023-04-15T09:38:03;44.97;;;19.33;;
8944;SDS011;4507;40.232;29.132;2023-04-15T09:40:33;48.37;;;18.53;;
8944;SDS011;4507;40.232;29.132;2023-04-15T09:43:03;51.60;;;22.07;;
8944;SDS011;4507;40.232;29.132;2023-04-15T09:45:35;44.30;;;20.23;;
8944;SDS011;4507;40.232;29.132;2023-04-15T09:48:23;35.60;;;21.70;;
8944;SDS011;4507;40.232;29.132;2023-04-15T09:50:54;43.90;;;21.93;;
8944;SDS011;4507;40.232;29.132;2023-04-15T09:53:26;35.83;;;19.67;;
8944;SDS011;4507;40.232;29.132;2023-04-15T09:55:58;42.37;;;18.40;;
8944;SDS011;4507;40.232;29.132;2023-04-15T09:58:47;41.50;;;17.17;;
8944;SDS011;4507;40.232;29.132;2023-04-15T10:01:25;42.37;;;16.23;;
8944;SDS011;4507;40.232;29.132;2023-04-15T10:03:55;40.57;;;16.00;;
8944;SDS011;4507;40.232;29.132;2023-04-15T10:06:25;31.97;;;16.30;;
8944;SDS011;4507;40.232;29.132;2023-04-15T10:08:55;27.23;;;16.00;;
8944;SDS011;4507;40.232;29.132;2023-04-15T10:11:25;29.50;;;14.23;;
8944;SDS011;4507;40.232;29.132;2023-04-15T10:13:57;38.20;;;15.70;;
8944;SDS011;4507;40.232;29.132;2023-04-15T10:16:29;25.10;;;14.00;;
8944;SDS011;4507;40.232;29.132;2023-04-15T10:19:01;24.60;;;13.43;;
8944;SDS011;4507;40.232;29.132;2023-04-15T10:21:33;24.60;;;13.23;;
8944;SDS011;4507;40.232;29.132;2023-04-15T10:24:02;30.57;;;14.33;;
8944;SDS011;4507;40.232;29.132;2023-04-15T10:26:33;34.67;;;14.53;;
8944;SDS011;4507;40.232;29.132;2023-04-15T10:29:02;50.90;;;16.17;;
8944;SDS011;4507;40.232;29.132;2023-04-15T10:31:33;28.83;;;14.30;;
8944;SDS011;4507;40.232;29.132;2023-04-15T10:34:04;33.27;;;13.57;;
8944;SDS011;4507;40.232;29.132;2023-04-15T10:36:34;28.60;;;13.33;;
8944;SDS011;4507;40.232;29.132;2023-04-15T10:39:05;35.00;;;13.50;;
8944;SDS011;4507;40.232;29.132;2023-04-15T10:42:07;41.63;;;14.57;;
8944;SDS011;4507;40.232;29.132;2023-04-15T10:44:37;30.00;;;13.20;;
8944;SDS011;4507;40.232;29.132;2023-04-15T10:47:11;30.83;;;12.67;;
8944;SDS011;4507;40.232;29.132;2023-04-15T10:49:45;21.00;;;12.07;;
8944;SDS011;4507;40.232;29.132;2023-04-15T10:52:16;21.77;;;11.10;;
8944;SDS011;4507;40.232;29.132;2023-04-15T10:54:49;26.97;;;11.07;;
8944;SDS011;4507;40.232;29.132;2023-04-15T10:57:33;364.67;;;46.87;;
8944;SDS011;4507;40.232;29.132;2023-04-15T11:00:11;28.60;;;10.70;;
8944;SDS011;4507;40.232;29.132;2023-04-15T11:02:44;23.60;;;10.60;;
8944;SDS011;4507;40.232;29.132;2023-04-15T11:05:14;20.07;;;9.07;;
8944;SDS011;4507;40.232;29.132;2023-04-15T11:07:48;25.47;;;9.33;;
8944;SDS011;4507;40.232;29.132;2023-04-15T11:13:27;14.33;;;8.90;;
8944;SDS011;4507;40.232;29.132;2023-04-15T11:15:59;29.50;;;10.13;;
8944;SDS011;4507;40.232;29.132;2023-04-15T11:18:31;22.87;;;10.13;;
8944;SDS011;4507;40.232;29.132;2023-04-15T11:21:02;20.73;;;9.60;;
8944;SDS011;4507;40.232;29.132;2023-04-15T11:23:33;16.47;;;9.07;;
8944;SDS011;4507;40.232;29.132;2023-04-15T11:26:05;18.83;;;9.97;;
8944;SDS011;4507;40.232;29.132;2023-04-15T11:28:41;14.10;;;8.60;;
8944;SDS011;4507;40.232;29.132;2023-04-15T11:31:12;20.10;;;8.23;;
8944;SDS011;4507;40.232;29.132;2023-04-15T11:33:46;23.67;;;9.53;;
8944;SDS011;4507;40.232;29.132;2023-04-15T11:36:23;23.67;;;8.87;;
8944;SDS011;4507;40.232;29.132;2023-04-15T11:38:54;14.93;;;8.80;;
8944;SDS011;4507;40.232;29.132;2023-04-15T11:41:25;38.83;;;10.80;;
8944;SDS011;4507;40.232;29.132;2023-04-15T11:43:54;40.37;;;10.90;;
8944;SDS011;4507;40.232;29.132;2023-04-15T11:46:27;25.80;;;10.17;;
8944;SDS011;4507;40.232;29.132;2023-04-15T11:49:00;22.17;;;10.50;;
8944;SDS011;4507;40.232;29.132;2023-04-15T11:51:31;17.53;;;7.90;;
8944;SDS011;4507;40.232;29.132;2023-04-15T11:54:01;11.77;;;7.00;;
8944;SDS011;4507;40.232;29.132;2023-04-15T11:56:31;27.10;;;8.00;;
8944;SDS011;4507;40.232;29.132;2023-04-15T11:59:00;18.33;;;7.23;;
8944;SDS011;4507;40.232;29.132;2023-04-15T12:01:30;17.13;;;7.00;;
8944;SDS011;4507;40.232;29.132;2023-04-15T12:04:04;26.60;;;7.43;;
8944;SDS011;4507;40.232;29.132;2023-04-15T12:06:40;16.10;;;7.10;;
8944;SDS011;4507;40.232;29.132;2023-04-15T12:09:09;23.07;;;7.07;;
8944;SDS011;4507;40.232;29.132;2023-04-15T12:11:41;18.43;;;7.23;;
8944;SDS011;4507;40.232;29.132;2023-04-15T12:14:32;20.00;;;7.60;;
8944;SDS011;4507;40.232;29.132;2023-04-15T12:17:03;17.70;;;7.10;;
8944;SDS011;4507;40.232;29.132;2023-04-15T12:19:35;22.70;;;7.90;;
8944;SDS011;4507;40.232;29.132;2023-04-15T12:22:08;27.27;;;8.07;;
8944;SDS011;4507;40.232;29.132;2023-04-15T12:24:40;31.97;;;8.87;;
8944;SDS011;4507;40.232;29.132;2023-04-15T12:27:15;41.90;;;9.03;;
8944;SDS011;4507;40.232;29.132;2023-04-15T12:29:44;30.13;;;8.27;;
8944;SDS011;4507;40.232;29.132;2023-04-15T12:32:13;49.63;;;9.87;;
8944;SDS011;4507;40.232;29.132;2023-04-15T12:34:48;30.10;;;8.37;;
8944;SDS011;4507;40.232;29.132;2023-04-15T12:37:37;32.53;;;9.40;;
8944;SDS011;4507;40.232;29.132;2023-04-15T12:40:07;30.53;;;9.90;;
8944;SDS011;4507;40.232;29.132;2023-04-15T12:42:36;32.23;;;10.40;;
8944;SDS011;4507;40.232;29.132;2023-04-15T12:45:06;34.40;;;9.80;;
8944;SDS011;4507;40.232;29.132;2023-04-15T12:50:06;27.90;;;9.53;;
8944;SDS011;4507;40.232;29.132;2023-04-15T12:52:36;38.30;;;9.20;;
8944;SDS011;4507;40.232;29.132;2023-04-15T12:55:06;32.80;;;8.93;;
8944;SDS011;4507;40.232;29.132;2023-04-15T12:57:38;23.03;;;8.53;;
8944;SDS011;4507;40.232;29.132;2023-04-15T13:00:11;73.63;;;11.50;;
8944;SDS011;4507;40.232;29.132;2023-04-15T13:02:45;38.17;;;9.10;;
8944;SDS011;4507;40.232;29.132;2023-04-15T13:05:17;41.03;;;9.27;;
8944;SDS011;4507;40.232;29.132;2023-04-15T13:07:48;32.60;;;10.03;;
8944;SDS011;4507;40.232;29.132;2023-04-15T13:10:18;33.17;;;10.03;;
8944;SDS011;4507;40.232;29.132;2023-04-15T13:12:47;29.60;;;9.97;;
8944;SDS011;4507;40.232;29.132;2023-04-15T13:15:19;35.17;;;11.33;;
8944;SDS011;4507;40.232;29.132;2023-04-15T13:17:48;38.37;;;10.90;;
8944;SDS011;4507;40.232;29.132;2023-04-15T13:20:19;61.87;;;14.17;;
8944;SDS011;4507;40.232;29.132;2023-04-15T13:22:48;53.00;;;14.10;;
8944;SDS011;4507;40.232;29.132;2023-04-15T13:25:19;44.87;;;13.60;;
8944;SDS011;4507;40.232;29.132;2023-04-15T13:27:48;60.77;;;12.93;;
8944;SDS011;4507;40.232;29.132;2023-04-15T13:30:18;66.57;;;12.90;;
8944;SDS011;4507;40.232;29.132;2023-04-15T13:32:47;52.87;;;13.43;;
8944;SDS011;4507;40.232;29.132;2023-04-15T13:35:18;41.33;;;12.10;;
8944;SDS011;4507;40.232;29.132;2023-04-15T13:37:47;41.50;;;11.07;;
8944;SDS011;4507;40.232;29.132;2023-04-15T13:40:18;26.00;;;9.70;;
8944;SDS011;4507;40.232;29.132;2023-04-15T13:42:47;37.43;;;10.23;;
8944;SDS011;4507;40.232;29.132;2023-04-15T13:45:16;22.47;;;8.67;;
8944;SDS011;4507;40.232;29.132;2023-04-15T13:47:45;15.13;;;7.60;;
8944;SDS011;4507;40.232;29.132;2023-04-15T13:50:21;23.80;;;7.77;;
8944;SDS011;4507;40.232;29.132;2023-04-15T13:52:50;19.17;;;7.63;;
8944;SDS011;4507;40.232;29.132;2023-04-15T13:55:19;28.03;;;9.10;;
8944;SDS011;4507;40.232;29.132;2023-04-15T13:57:51;50.97;;;9.77;;
8944;SDS011;4507;40.232;29.132;2023-04-15T14:00:21;31.37;;;8.90;;
8944;SDS011;4507;40.232;29.132;2023-04-15T14:02:50;41.97;;;9.83;;
8944;SDS011;4507;40.232;29.132;2023-04-15T14:05:20;43.47;;;9.60;;
8944;SDS011;4507;40.232;29.132;2023-04-15T14:07:50;24.73;;;9.10;;
8944;SDS011;4507;40.232;29.132;2023-04-15T14:10:19;32.33;;;9.33;;
8944;SDS011;4507;40.232;29.132;2023-04-15T14:12:48;23.40;;;8.03;;
8944;SDS011;4507;40.232;29.132;2023-04-15T14:15:17;22.63;;;8.13;;
8944;SDS011;4507;40.232;29.132;2023-04-15T14:17:46;24.10;;;8.57;;
8944;SDS011;4507;40.232;29.132;2023-04-15T14:20:16;21.33;;;9.70;;
8944;SDS011;4507;40.232;29.132;2023-04-15T14:22:47;35.70;;;9.50;;
8944;SDS011;4507;40.232;29.132;2023-04-15T14:25:16;36.67;;;9.23;;
8944;SDS011;4507;40.232;29.132;2023-04-15T14:27:58;28.63;;;8.90;;
8944;SDS011;4507;40.232;29.132;2023-04-15T14:30:27;31.17;;;8.93;;
8944;SDS011;4507;40.232;29.132;2023-04-15T14:32:57;26.90;;;8.33;;
8944;SDS011;4507;40.232;29.132;2023-04-15T14:35:26;28.90;;;8.53;;
8944;SDS011;4507;40.232;29.132;2023-04-15T14:37:56;47.27;;;9.80;;
8944;SDS011;4507;40.232;29.132;2023-04-15T14:40:26;56.97;;;10.43;;
8944;SDS011;4507;40.232;29.132;2023-04-15T14:42:55;67.87;;;12.47;;
8944;SDS011;4507;40.232;29.132;2023-04-15T14:45:24;41.17;;;10.60;;
8944;SDS011;4507;40.232;29.132;2023-04-15T14:47:53;36.33;;;9.37;;
8944;SDS011;4507;40.232;29.132;2023-04-15T14:50:22;21.93;;;8.40;;
8944;SDS011;4507;40.232;29.132;2023-04-15T14:52:51;44.07;;;9.10;;
8944;SDS011;4507;40.232;29.132;2023-04-15T14:55:21;79.23;;;13.33;;
8944;SDS011;4507;40.232;29.132;2023-04-15T14:57:50;56.83;;;11.23;;
8944;SDS011;4507;40.232;29.132;2023-04-15T15:00:20;64.00;;;19.93;;
8944;SDS011;4507;40.232;29.132;2023-04-15T15:02:49;33.00;;;9.07;;
8944;SDS011;4507;40.232;29.132;2023-04-15T15:05:18;27.63;;;7.47;;